<?xml version="1.0" encoding="UTF-8" standalone="no" ?>
<gpx xmlns="http://www.topografix.com/GPX/1/1" xmlns:xsi="http://www.w3.org/2001/XMLSchema-instance" xsi:schemaLocation="http://www.topografix.com/GPX/1/1 http://www.topografix.com/GPX/1/1/gpx.xsd" version="1.1" creator="VisuGPX - https://www.visugpx.com">
  <metadata>
    <name>sejour gov alsace</name>
  </metadata>
  <wpt lat="48.06424" lon="7.02221">
    <ele>1132</ele>
    <name><![CDATA[Col de la Schlucht]]></name>
    <desc><![CDATA[Parking]]></desc>
    <cmt><![CDATA[Parking]]></cmt>
  </wpt>
  <wpt lat="48.04158" lon="7.29947">
    <ele>223</ele>
    <name><![CDATA[Eguisheim]]></name>
  </wpt>
  <wpt lat="48.1793" lon="7.31018">
    <ele>275</ele>
    <name><![CDATA[Hunawihr]]></name>
  </wpt>
  <wpt lat="48.13923" lon="7.25933">
    <ele>251</ele>
    <name><![CDATA[Kaysersberg]]></name>
  </wpt>
  <wpt lat="48.14587" lon="7.25086">
    <ele>290</ele>
    <name><![CDATA[Kaysersberg-CCAS]]></name>
    <desc><![CDATA[3 Rue Rene le Guen]]></desc>
    <cmt><![CDATA[3 Rue Rene le Guen]]></cmt>
  </wpt>
  <wpt lat="48.14668" lon="7.25549">
    <ele>261</ele>
    <name><![CDATA[Kaysersberg-Salle de Sport]]></name>
  </wpt>
  <wpt lat="48.11261" lon="7.10019">
    <ele>958</ele>
    <name><![CDATA[Lac Noir]]></name>
  </wpt>
  <wpt lat="48.17" lon="7.12576">
    <ele>667</ele>
    <name><![CDATA[Le Bonhomme]]></name>
  </wpt>
  <wpt lat="48.05292" lon="6.9482">
    <ele>918</ele>
    <name><![CDATA[Lispach]]></name>
  </wpt>
  <wpt lat="48.16758" lon="7.29424">
    <ele>321</ele>
    <name><![CDATA[Riquewihr]]></name>
  </wpt>
  <wpt lat="48.23274" lon="7.36606">
    <ele>254</ele>
    <name><![CDATA[St-Hippolyte]]></name>
  </wpt>
  <wpt lat="48.22694" lon="7.30439">
    <ele>466</ele>
    <name><![CDATA[Thannenkirch]]></name>
  </wpt>
  <trk>
    <name><![CDATA[03-St Hippolyte-Château du Haut-Koenigsbourg (12,5 Km-490 m)]]></name>
    <trkseg>
      <trkpt lat="48.23274" lon="7.36606">
        <ele>254</ele>
        <time>2017-02-19T09:03:00Z</time>
      </trkpt>
      <trkpt lat="48.23262" lon="7.36595">
        <ele>253</ele>
        <time>2017-02-19T09:08:16Z</time>
      </trkpt>
      <trkpt lat="48.2325" lon="7.36573">
        <ele>254</ele>
        <time>2017-02-19T09:08:39Z</time>
      </trkpt>
      <trkpt lat="48.23234" lon="7.36557">
        <ele>253</ele>
        <time>2017-02-19T09:08:59Z</time>
      </trkpt>
      <trkpt lat="48.23206" lon="7.36528">
        <ele>253</ele>
        <time>2017-02-19T09:09:25Z</time>
      </trkpt>
      <trkpt lat="48.23193" lon="7.36513">
        <ele>253</ele>
        <time>2017-02-19T09:09:43Z</time>
      </trkpt>
      <trkpt lat="48.23179" lon="7.36486">
        <ele>252</ele>
        <time>2017-02-19T09:09:59Z</time>
      </trkpt>
      <trkpt lat="48.2318" lon="7.36448">
        <ele>253</ele>
        <time>2017-02-19T09:10:19Z</time>
      </trkpt>
      <trkpt lat="48.2319" lon="7.36415">
        <ele>255</ele>
        <time>2017-02-19T09:10:39Z</time>
      </trkpt>
      <trkpt lat="48.23199" lon="7.36386">
        <ele>256</ele>
        <time>2017-02-19T09:11:11Z</time>
      </trkpt>
      <trkpt lat="48.23208" lon="7.36352">
        <ele>258</ele>
        <time>2017-02-19T09:11:31Z</time>
      </trkpt>
      <trkpt lat="48.23213" lon="7.36329">
        <ele>259</ele>
        <time>2017-02-19T09:11:51Z</time>
      </trkpt>
      <trkpt lat="48.23221" lon="7.36293">
        <ele>261</ele>
        <time>2017-02-19T09:12:09Z</time>
      </trkpt>
      <trkpt lat="48.23236" lon="7.36255">
        <ele>263</ele>
        <time>2017-02-19T09:13:05Z</time>
      </trkpt>
      <trkpt lat="48.23245" lon="7.3624">
        <ele>264</ele>
        <time>2017-02-19T09:13:23Z</time>
      </trkpt>
      <trkpt lat="48.23254" lon="7.36224">
        <ele>266</ele>
        <time>2017-02-19T09:13:33Z</time>
      </trkpt>
      <trkpt lat="48.23272" lon="7.36194">
        <ele>268</ele>
        <time>2017-02-19T09:13:59Z</time>
      </trkpt>
      <trkpt lat="48.23289" lon="7.36166">
        <ele>270</ele>
        <time>2017-02-19T09:14:19Z</time>
      </trkpt>
      <trkpt lat="48.23299" lon="7.36148">
        <ele>271</ele>
        <time>2017-02-19T09:14:39Z</time>
      </trkpt>
      <trkpt lat="48.2331" lon="7.36132">
        <ele>271</ele>
        <time>2017-02-19T09:14:49Z</time>
      </trkpt>
      <trkpt lat="48.23318" lon="7.36109">
        <ele>270</ele>
        <time>2017-02-19T09:15:11Z</time>
      </trkpt>
      <trkpt lat="48.2333" lon="7.36082">
        <ele>270</ele>
        <time>2017-02-19T09:15:45Z</time>
      </trkpt>
      <trkpt lat="48.23346" lon="7.36053">
        <ele>268</ele>
        <time>2017-02-19T09:16:01Z</time>
      </trkpt>
      <trkpt lat="48.23365" lon="7.3603">
        <ele>268</ele>
        <time>2017-02-19T09:16:23Z</time>
      </trkpt>
      <trkpt lat="48.23382" lon="7.35999">
        <ele>266</ele>
        <time>2017-02-19T09:16:48Z</time>
      </trkpt>
      <trkpt lat="48.23394" lon="7.35971">
        <ele>267</ele>
        <time>2017-02-19T09:17:05Z</time>
      </trkpt>
      <trkpt lat="48.23399" lon="7.35952">
        <ele>267</ele>
        <time>2017-02-19T09:17:25Z</time>
      </trkpt>
      <trkpt lat="48.23406" lon="7.35921">
        <ele>267</ele>
        <time>2017-02-19T09:17:43Z</time>
      </trkpt>
      <trkpt lat="48.23409" lon="7.35882">
        <ele>268</ele>
        <time>2017-02-19T09:18:09Z</time>
      </trkpt>
      <trkpt lat="48.23409" lon="7.3586">
        <ele>269</ele>
        <time>2017-02-19T09:18:18Z</time>
      </trkpt>
      <trkpt lat="48.23409" lon="7.35837">
        <ele>269</ele>
        <time>2017-02-19T09:18:37Z</time>
      </trkpt>
      <trkpt lat="48.2341" lon="7.35816">
        <ele>270</ele>
        <time>2017-02-19T09:18:46Z</time>
      </trkpt>
      <trkpt lat="48.23411" lon="7.35796">
        <ele>270</ele>
        <time>2017-02-19T09:19:03Z</time>
      </trkpt>
      <trkpt lat="48.23414" lon="7.35763">
        <ele>270</ele>
        <time>2017-02-19T09:19:21Z</time>
      </trkpt>
      <trkpt lat="48.23424" lon="7.35728">
        <ele>272</ele>
        <time>2017-02-19T09:19:39Z</time>
      </trkpt>
      <trkpt lat="48.2343" lon="7.35705">
        <ele>274</ele>
        <time>2017-02-19T09:19:54Z</time>
      </trkpt>
      <trkpt lat="48.23441" lon="7.35674">
        <ele>277</ele>
        <time>2017-02-19T09:20:13Z</time>
      </trkpt>
      <trkpt lat="48.23449" lon="7.3564">
        <ele>279</ele>
        <time>2017-02-19T09:20:39Z</time>
      </trkpt>
      <trkpt lat="48.23455" lon="7.35602">
        <ele>281</ele>
        <time>2017-02-19T09:21:07Z</time>
      </trkpt>
      <trkpt lat="48.23457" lon="7.35581">
        <ele>282</ele>
        <time>2017-02-19T09:21:15Z</time>
      </trkpt>
      <trkpt lat="48.23461" lon="7.35546">
        <ele>282</ele>
        <time>2017-02-19T09:21:36Z</time>
      </trkpt>
      <trkpt lat="48.23464" lon="7.35493">
        <ele>282</ele>
        <time>2017-02-19T09:22:11Z</time>
      </trkpt>
      <trkpt lat="48.23463" lon="7.35465">
        <ele>282</ele>
        <time>2017-02-19T09:22:30Z</time>
      </trkpt>
      <trkpt lat="48.23464" lon="7.35433">
        <ele>283</ele>
        <time>2017-02-19T09:22:49Z</time>
      </trkpt>
      <trkpt lat="48.23464" lon="7.354">
        <ele>284</ele>
        <time>2017-02-19T09:23:36Z</time>
      </trkpt>
      <trkpt lat="48.23464" lon="7.3535">
        <ele>286</ele>
        <time>2017-02-19T09:24:40Z</time>
      </trkpt>
      <trkpt lat="48.23465" lon="7.35327">
        <ele>287</ele>
        <time>2017-02-19T09:25:03Z</time>
      </trkpt>
      <trkpt lat="48.23465" lon="7.35291">
        <ele>289</ele>
        <time>2017-02-19T09:25:19Z</time>
      </trkpt>
      <trkpt lat="48.23478" lon="7.35275">
        <ele>291</ele>
        <time>2017-02-19T09:25:36Z</time>
      </trkpt>
      <trkpt lat="48.23493" lon="7.35253">
        <ele>293</ele>
        <time>2017-02-19T09:25:59Z</time>
      </trkpt>
      <trkpt lat="48.23502" lon="7.35213">
        <ele>295</ele>
        <time>2017-02-19T09:26:23Z</time>
      </trkpt>
      <trkpt lat="48.23508" lon="7.35178">
        <ele>296</ele>
        <time>2017-02-19T09:26:41Z</time>
      </trkpt>
      <trkpt lat="48.23515" lon="7.35138">
        <ele>300</ele>
        <time>2017-02-19T09:27:11Z</time>
      </trkpt>
      <trkpt lat="48.23521" lon="7.35102">
        <ele>303</ele>
        <time>2017-02-19T09:27:31Z</time>
      </trkpt>
      <trkpt lat="48.23529" lon="7.35054">
        <ele>306</ele>
        <time>2017-02-19T09:28:19Z</time>
      </trkpt>
      <trkpt lat="48.23531" lon="7.35022">
        <ele>309</ele>
        <time>2017-02-19T09:28:37Z</time>
      </trkpt>
      <trkpt lat="48.23536" lon="7.34987">
        <ele>311</ele>
        <time>2017-02-19T09:28:55Z</time>
      </trkpt>
      <trkpt lat="48.23541" lon="7.34967">
        <ele>313</ele>
        <time>2017-02-19T09:29:23Z</time>
      </trkpt>
      <trkpt lat="48.23547" lon="7.34938">
        <ele>315</ele>
        <time>2017-02-19T09:29:47Z</time>
      </trkpt>
      <trkpt lat="48.23552" lon="7.34905">
        <ele>317</ele>
        <time>2017-02-19T09:30:03Z</time>
      </trkpt>
      <trkpt lat="48.23558" lon="7.3487">
        <ele>318</ele>
        <time>2017-02-19T09:30:21Z</time>
      </trkpt>
      <trkpt lat="48.23562" lon="7.34838">
        <ele>320</ele>
        <time>2017-02-19T09:30:37Z</time>
      </trkpt>
      <trkpt lat="48.23564" lon="7.348">
        <ele>321</ele>
        <time>2017-02-19T09:31:03Z</time>
      </trkpt>
      <trkpt lat="48.23568" lon="7.3475">
        <ele>324</ele>
        <time>2017-02-19T09:31:35Z</time>
      </trkpt>
      <trkpt lat="48.23569" lon="7.34721">
        <ele>326</ele>
        <time>2017-02-19T09:31:51Z</time>
      </trkpt>
      <trkpt lat="48.23571" lon="7.34687">
        <ele>329</ele>
        <time>2017-02-19T09:32:13Z</time>
      </trkpt>
      <trkpt lat="48.23573" lon="7.34659">
        <ele>331</ele>
        <time>2017-02-19T09:32:29Z</time>
      </trkpt>
      <trkpt lat="48.23577" lon="7.34618">
        <ele>333</ele>
        <time>2017-02-19T09:32:47Z</time>
      </trkpt>
      <trkpt lat="48.23588" lon="7.34572">
        <ele>336</ele>
        <time>2017-02-19T09:33:33Z</time>
      </trkpt>
      <trkpt lat="48.236" lon="7.34552">
        <ele>339</ele>
        <time>2017-02-19T09:34:27Z</time>
      </trkpt>
      <trkpt lat="48.23614" lon="7.34535">
        <ele>342</ele>
        <time>2017-02-19T09:37:51Z</time>
      </trkpt>
      <trkpt lat="48.23632" lon="7.34509">
        <ele>344</ele>
        <time>2017-02-19T09:38:30Z</time>
      </trkpt>
      <trkpt lat="48.23653" lon="7.34482">
        <ele>347</ele>
        <time>2017-02-19T09:38:54Z</time>
      </trkpt>
      <trkpt lat="48.23675" lon="7.34456">
        <ele>351</ele>
        <time>2017-02-19T09:39:21Z</time>
      </trkpt>
      <trkpt lat="48.23685" lon="7.34441">
        <ele>353</ele>
        <time>2017-02-19T09:39:29Z</time>
      </trkpt>
      <trkpt lat="48.23699" lon="7.34419">
        <ele>355</ele>
        <time>2017-02-19T09:39:51Z</time>
      </trkpt>
      <trkpt lat="48.23709" lon="7.34388">
        <ele>358</ele>
        <time>2017-02-19T09:40:09Z</time>
      </trkpt>
      <trkpt lat="48.23714" lon="7.34352">
        <ele>360</ele>
        <time>2017-02-19T09:41:27Z</time>
      </trkpt>
      <trkpt lat="48.23719" lon="7.34319">
        <ele>362</ele>
        <time>2017-02-19T09:41:49Z</time>
      </trkpt>
      <trkpt lat="48.23717" lon="7.34285">
        <ele>366</ele>
        <time>2017-02-19T09:42:21Z</time>
      </trkpt>
      <trkpt lat="48.23715" lon="7.34254">
        <ele>370</ele>
        <time>2017-02-19T09:42:57Z</time>
      </trkpt>
      <trkpt lat="48.23711" lon="7.34218">
        <ele>375</ele>
        <time>2017-02-19T09:43:19Z</time>
      </trkpt>
      <trkpt lat="48.23705" lon="7.34167">
        <ele>382</ele>
        <time>2017-02-19T09:43:55Z</time>
      </trkpt>
      <trkpt lat="48.237" lon="7.34133">
        <ele>384</ele>
        <time>2017-02-19T09:44:27Z</time>
      </trkpt>
      <trkpt lat="48.23696" lon="7.34099">
        <ele>385</ele>
        <time>2017-02-19T09:44:51Z</time>
      </trkpt>
      <trkpt lat="48.23691" lon="7.34063">
        <ele>386</ele>
        <time>2017-02-19T09:45:13Z</time>
      </trkpt>
      <trkpt lat="48.23687" lon="7.34013">
        <ele>390</ele>
        <time>2017-02-19T09:45:53Z</time>
      </trkpt>
      <trkpt lat="48.2369" lon="7.33982">
        <ele>393</ele>
        <time>2017-02-19T09:46:15Z</time>
      </trkpt>
      <trkpt lat="48.23703" lon="7.33959">
        <ele>396</ele>
        <time>2017-02-19T09:46:41Z</time>
      </trkpt>
      <trkpt lat="48.23733" lon="7.33938">
        <ele>398</ele>
        <time>2017-02-19T09:47:23Z</time>
      </trkpt>
      <trkpt lat="48.23753" lon="7.3392">
        <ele>400</ele>
        <time>2017-02-19T09:47:53Z</time>
      </trkpt>
      <trkpt lat="48.23771" lon="7.33904">
        <ele>405</ele>
        <time>2017-02-19T09:48:23Z</time>
      </trkpt>
      <trkpt lat="48.23779" lon="7.33876">
        <ele>407</ele>
        <time>2017-02-19T09:48:45Z</time>
      </trkpt>
      <trkpt lat="48.23784" lon="7.33854">
        <ele>409</ele>
        <time>2017-02-19T09:48:57Z</time>
      </trkpt>
      <trkpt lat="48.23787" lon="7.33821">
        <ele>411</ele>
        <time>2017-02-19T09:49:48Z</time>
      </trkpt>
      <trkpt lat="48.23812" lon="7.33838">
        <ele>412</ele>
        <time>2017-02-19T09:53:54Z</time>
      </trkpt>
      <trkpt lat="48.23826" lon="7.33845">
        <ele>413</ele>
        <time>2017-02-19T09:54:03Z</time>
      </trkpt>
      <trkpt lat="48.23839" lon="7.33851">
        <ele>415</ele>
        <time>2017-02-19T09:54:21Z</time>
      </trkpt>
      <trkpt lat="48.23857" lon="7.33866">
        <ele>417</ele>
        <time>2017-02-19T09:54:57Z</time>
      </trkpt>
      <trkpt lat="48.23878" lon="7.33891">
        <ele>418</ele>
        <time>2017-02-19T09:55:17Z</time>
      </trkpt>
      <trkpt lat="48.23903" lon="7.33904">
        <ele>419</ele>
        <time>2017-02-19T09:55:40Z</time>
      </trkpt>
      <trkpt lat="48.23934" lon="7.33891">
        <ele>421</ele>
        <time>2017-02-19T09:56:47Z</time>
      </trkpt>
      <trkpt lat="48.23927" lon="7.33862">
        <ele>421</ele>
        <time>2017-02-19T09:57:17Z</time>
      </trkpt>
      <trkpt lat="48.2392" lon="7.33831">
        <ele>422</ele>
        <time>2017-02-19T09:57:36Z</time>
      </trkpt>
      <trkpt lat="48.23914" lon="7.33801">
        <ele>425</ele>
        <time>2017-02-19T09:57:55Z</time>
      </trkpt>
      <trkpt lat="48.23914" lon="7.33767">
        <ele>429</ele>
        <time>2017-02-19T09:58:13Z</time>
      </trkpt>
      <trkpt lat="48.23915" lon="7.33733">
        <ele>432</ele>
        <time>2017-02-19T09:58:47Z</time>
      </trkpt>
      <trkpt lat="48.23919" lon="7.33698">
        <ele>437</ele>
        <time>2017-02-19T09:59:15Z</time>
      </trkpt>
      <trkpt lat="48.23923" lon="7.33666">
        <ele>440</ele>
        <time>2017-02-19T09:59:54Z</time>
      </trkpt>
      <trkpt lat="48.23926" lon="7.33616">
        <ele>450</ele>
        <time>2017-02-19T10:00:43Z</time>
      </trkpt>
      <trkpt lat="48.23928" lon="7.33577">
        <ele>457</ele>
        <time>2017-02-19T10:01:09Z</time>
      </trkpt>
      <trkpt lat="48.23928" lon="7.33528">
        <ele>462</ele>
        <time>2017-02-19T10:02:17Z</time>
      </trkpt>
      <trkpt lat="48.23935" lon="7.33492">
        <ele>465</ele>
        <time>2017-02-19T10:09:45Z</time>
      </trkpt>
      <trkpt lat="48.23952" lon="7.33472">
        <ele>465</ele>
        <time>2017-02-19T10:10:07Z</time>
      </trkpt>
      <trkpt lat="48.23971" lon="7.3345">
        <ele>466</ele>
        <time>2017-02-19T10:11:17Z</time>
      </trkpt>
      <trkpt lat="48.23993" lon="7.33435">
        <ele>467</ele>
        <time>2017-02-19T10:13:41Z</time>
      </trkpt>
      <trkpt lat="48.24016" lon="7.3343">
        <ele>465</ele>
        <time>2017-02-19T10:14:15Z</time>
      </trkpt>
      <trkpt lat="48.24038" lon="7.33412">
        <ele>465</ele>
        <time>2017-02-19T10:14:47Z</time>
      </trkpt>
      <trkpt lat="48.24045" lon="7.33378">
        <ele>470</ele>
        <time>2017-02-19T10:15:13Z</time>
      </trkpt>
      <trkpt lat="48.24046" lon="7.33343">
        <ele>476</ele>
        <time>2017-02-19T10:15:42Z</time>
      </trkpt>
      <trkpt lat="48.24051" lon="7.33311">
        <ele>482</ele>
        <time>2017-02-19T10:16:15Z</time>
      </trkpt>
      <trkpt lat="48.24069" lon="7.33297">
        <ele>483</ele>
        <time>2017-02-19T10:16:53Z</time>
      </trkpt>
      <trkpt lat="48.24086" lon="7.33307">
        <ele>479</ele>
        <time>2017-02-19T10:17:15Z</time>
      </trkpt>
      <trkpt lat="48.24108" lon="7.33302">
        <ele>483</ele>
        <time>2017-02-19T10:17:43Z</time>
      </trkpt>
      <trkpt lat="48.24119" lon="7.33325">
        <ele>480</ele>
        <time>2017-02-19T10:17:57Z</time>
      </trkpt>
      <trkpt lat="48.24124" lon="7.33362">
        <ele>474</ele>
        <time>2017-02-19T10:18:19Z</time>
      </trkpt>
      <trkpt lat="48.24131" lon="7.33404">
        <ele>467</ele>
        <time>2017-02-19T10:18:39Z</time>
      </trkpt>
      <trkpt lat="48.24153" lon="7.33435">
        <ele>466</ele>
        <time>2017-02-19T10:19:23Z</time>
      </trkpt>
      <trkpt lat="48.24177" lon="7.33419">
        <ele>471</ele>
        <time>2017-02-19T10:19:41Z</time>
      </trkpt>
      <trkpt lat="48.24198" lon="7.33406">
        <ele>475</ele>
        <time>2017-02-19T10:20:01Z</time>
      </trkpt>
      <trkpt lat="48.24223" lon="7.33386">
        <ele>479</ele>
        <time>2017-02-19T10:20:31Z</time>
      </trkpt>
      <trkpt lat="48.24239" lon="7.33401">
        <ele>479</ele>
        <time>2017-02-19T10:23:19Z</time>
      </trkpt>
      <trkpt lat="48.2425" lon="7.33429">
        <ele>478</ele>
        <time>2017-02-19T10:25:43Z</time>
      </trkpt>
      <trkpt lat="48.24263" lon="7.33463">
        <ele>481</ele>
        <time>2017-02-19T10:26:27Z</time>
      </trkpt>
      <trkpt lat="48.24284" lon="7.33455">
        <ele>487</ele>
        <time>2021-04-26T14:26:01Z</time>
      </trkpt>
      <trkpt lat="48.24293" lon="7.3343">
        <ele>491</ele>
        <time>2017-02-19T10:30:51Z</time>
      </trkpt>
      <trkpt lat="48.24305" lon="7.33399">
        <ele>494</ele>
        <time>2017-02-19T10:31:10Z</time>
      </trkpt>
      <trkpt lat="48.24312" lon="7.3338">
        <ele>496</ele>
        <time>2017-02-19T10:31:23Z</time>
      </trkpt>
      <trkpt lat="48.24326" lon="7.33347">
        <ele>498</ele>
        <time>2017-02-19T10:31:41Z</time>
      </trkpt>
      <trkpt lat="48.24335" lon="7.33328">
        <ele>498</ele>
        <time>2017-02-19T10:31:53Z</time>
      </trkpt>
      <trkpt lat="48.24345" lon="7.33299">
        <ele>501</ele>
        <time>2017-02-19T10:32:22Z</time>
      </trkpt>
      <trkpt lat="48.24358" lon="7.33276">
        <ele>505</ele>
        <time>2017-02-19T10:32:40Z</time>
      </trkpt>
      <trkpt lat="48.24365" lon="7.33247">
        <ele>507</ele>
        <time>2017-02-19T10:33:03Z</time>
      </trkpt>
      <trkpt lat="48.24376" lon="7.33213">
        <ele>512</ele>
        <time>2017-02-19T10:33:33Z</time>
      </trkpt>
      <trkpt lat="48.2439" lon="7.3318">
        <ele>516</ele>
        <time>2017-02-19T10:33:50Z</time>
      </trkpt>
      <trkpt lat="48.244" lon="7.3315">
        <ele>519</ele>
        <time>2017-02-19T10:34:25Z</time>
      </trkpt>
      <trkpt lat="48.2441" lon="7.33118">
        <ele>522</ele>
        <time>2017-02-19T10:34:41Z</time>
      </trkpt>
      <trkpt lat="48.24411" lon="7.33083">
        <ele>523</ele>
        <time>2017-02-19T10:35:24Z</time>
      </trkpt>
      <trkpt lat="48.24411" lon="7.33043">
        <ele>528</ele>
        <time>2017-02-19T10:35:59Z</time>
      </trkpt>
      <trkpt lat="48.2441" lon="7.33007">
        <ele>532</ele>
        <time>2017-02-19T10:36:23Z</time>
      </trkpt>
      <trkpt lat="48.24401" lon="7.32956">
        <ele>540</ele>
        <time>2017-02-19T10:37:11Z</time>
      </trkpt>
      <trkpt lat="48.24398" lon="7.32926">
        <ele>544</ele>
        <time>2017-02-19T10:37:39Z</time>
      </trkpt>
      <trkpt lat="48.2439" lon="7.32891">
        <ele>550</ele>
        <time>2017-02-19T10:38:23Z</time>
      </trkpt>
      <trkpt lat="48.24385" lon="7.32872">
        <ele>554</ele>
        <time>2017-02-19T10:38:30Z</time>
      </trkpt>
      <trkpt lat="48.24377" lon="7.32841">
        <ele>560</ele>
        <time>2017-02-19T10:38:47Z</time>
      </trkpt>
      <trkpt lat="48.24369" lon="7.32814">
        <ele>562</ele>
        <time>2017-02-19T10:39:23Z</time>
      </trkpt>
      <trkpt lat="48.24365" lon="7.32785">
        <ele>565</ele>
        <time>2017-02-19T10:39:42Z</time>
      </trkpt>
      <trkpt lat="48.24361" lon="7.32753">
        <ele>569</ele>
        <time>2017-02-19T10:39:57Z</time>
      </trkpt>
      <trkpt lat="48.24356" lon="7.32725">
        <ele>571</ele>
        <time>2017-02-19T10:40:17Z</time>
      </trkpt>
      <trkpt lat="48.24349" lon="7.32693">
        <ele>574</ele>
        <time>2017-02-19T10:40:57Z</time>
      </trkpt>
      <trkpt lat="48.24341" lon="7.32658">
        <ele>579</ele>
        <time>2017-02-19T10:41:47Z</time>
      </trkpt>
      <trkpt lat="48.24333" lon="7.32627">
        <ele>584</ele>
        <time>2017-02-19T10:42:23Z</time>
      </trkpt>
      <trkpt lat="48.24351" lon="7.32611">
        <ele>586</ele>
        <time>2017-02-19T10:43:11Z</time>
      </trkpt>
      <trkpt lat="48.24373" lon="7.3263">
        <ele>582</ele>
        <time>2017-02-19T10:43:35Z</time>
      </trkpt>
      <trkpt lat="48.24394" lon="7.32654">
        <ele>581</ele>
        <time>2017-02-19T10:43:55Z</time>
      </trkpt>
      <trkpt lat="48.24413" lon="7.3269">
        <ele>581</ele>
        <time>2017-02-19T10:45:27Z</time>
      </trkpt>
      <trkpt lat="48.24433" lon="7.32704">
        <ele>579</ele>
        <time>2017-02-19T10:45:47Z</time>
      </trkpt>
      <trkpt lat="48.24452" lon="7.32729">
        <ele>578</ele>
        <time>2017-02-19T10:46:19Z</time>
      </trkpt>
      <trkpt lat="48.24471" lon="7.32754">
        <ele>579</ele>
        <time>2017-02-19T10:51:53Z</time>
      </trkpt>
      <trkpt lat="48.24488" lon="7.32778">
        <ele>580</ele>
        <time>2017-02-19T10:52:25Z</time>
      </trkpt>
      <trkpt lat="48.2451" lon="7.32814">
        <ele>582</ele>
        <time>2017-02-19T10:52:57Z</time>
      </trkpt>
      <trkpt lat="48.24524" lon="7.32837">
        <ele>581</ele>
        <time>2017-02-19T10:53:18Z</time>
      </trkpt>
      <trkpt lat="48.2454" lon="7.32862">
        <ele>579</ele>
        <time>2017-02-19T10:53:29Z</time>
      </trkpt>
      <trkpt lat="48.24555" lon="7.32886">
        <ele>578</ele>
        <time>2017-02-19T10:53:57Z</time>
      </trkpt>
      <trkpt lat="48.24562" lon="7.32919">
        <ele>580</ele>
        <time>2017-02-19T10:54:21Z</time>
      </trkpt>
      <trkpt lat="48.24567" lon="7.32939">
        <ele>581</ele>
        <time>2017-02-19T10:54:31Z</time>
      </trkpt>
      <trkpt lat="48.24581" lon="7.32966">
        <ele>586</ele>
        <time>2017-02-19T10:55:05Z</time>
      </trkpt>
      <trkpt lat="48.24597" lon="7.32995">
        <ele>589</ele>
        <time>2017-02-19T10:56:03Z</time>
      </trkpt>
      <trkpt lat="48.24616" lon="7.33027">
        <ele>593</ele>
        <time>2017-02-19T10:56:19Z</time>
      </trkpt>
      <trkpt lat="48.24629" lon="7.33056">
        <ele>598</ele>
        <time>2017-02-19T10:56:47Z</time>
      </trkpt>
      <trkpt lat="48.24636" lon="7.33091">
        <ele>603</ele>
        <time>2017-02-19T10:57:31Z</time>
      </trkpt>
      <trkpt lat="48.24639" lon="7.33112">
        <ele>605</ele>
        <time>2017-02-19T10:57:47Z</time>
      </trkpt>
      <trkpt lat="48.24645" lon="7.33131">
        <ele>608</ele>
        <time>2017-02-19T10:58:00Z</time>
      </trkpt>
      <trkpt lat="48.24651" lon="7.33171">
        <ele>612</ele>
        <time>2017-02-19T10:58:29Z</time>
      </trkpt>
      <trkpt lat="48.24669" lon="7.33195">
        <ele>617</ele>
        <time>2017-02-19T10:58:53Z</time>
      </trkpt>
      <trkpt lat="48.24681" lon="7.33224">
        <ele>618</ele>
        <time>2017-02-19T10:59:17Z</time>
      </trkpt>
      <trkpt lat="48.24684" lon="7.33255">
        <ele>621</ele>
        <time>2017-02-19T10:59:48Z</time>
      </trkpt>
      <trkpt lat="48.247" lon="7.33271">
        <ele>621</ele>
        <time>2017-02-19T11:00:13Z</time>
      </trkpt>
      <trkpt lat="48.24714" lon="7.33297">
        <ele>625</ele>
        <time>2017-02-19T11:00:39Z</time>
      </trkpt>
      <trkpt lat="48.24712" lon="7.33332">
        <ele>629</ele>
        <time>2017-02-19T11:01:41Z</time>
      </trkpt>
      <trkpt lat="48.24713" lon="7.33382">
        <ele>633</ele>
        <time>2017-02-19T11:02:18Z</time>
      </trkpt>
      <trkpt lat="48.24718" lon="7.33419">
        <ele>637</ele>
        <time>2017-02-19T11:02:55Z</time>
      </trkpt>
      <trkpt lat="48.24726" lon="7.33454">
        <ele>640</ele>
        <time>2017-02-19T11:03:21Z</time>
      </trkpt>
      <trkpt lat="48.24731" lon="7.33486">
        <ele>642</ele>
        <time>2017-02-19T11:03:51Z</time>
      </trkpt>
      <trkpt lat="48.24734" lon="7.33522">
        <ele>643</ele>
        <time>2017-02-19T11:04:11Z</time>
      </trkpt>
      <trkpt lat="48.24737" lon="7.33545">
        <ele>645</ele>
        <time>2017-02-19T11:04:20Z</time>
      </trkpt>
      <trkpt lat="48.24751" lon="7.33565">
        <ele>652</ele>
        <time>2017-02-19T11:04:39Z</time>
      </trkpt>
      <trkpt lat="48.24759" lon="7.33588">
        <ele>655</ele>
        <time>2017-02-19T11:04:59Z</time>
      </trkpt>
      <trkpt lat="48.24767" lon="7.33613">
        <ele>659</ele>
        <time>2017-02-19T11:05:25Z</time>
      </trkpt>
      <trkpt lat="48.24779" lon="7.33643">
        <ele>665</ele>
        <time>2017-02-19T11:06:13Z</time>
      </trkpt>
      <trkpt lat="48.24783" lon="7.33681">
        <ele>669</ele>
        <time>2017-02-19T11:06:53Z</time>
      </trkpt>
      <trkpt lat="48.24783" lon="7.33702">
        <ele>670</ele>
        <time>2017-02-19T11:07:23Z</time>
      </trkpt>
      <trkpt lat="48.24795" lon="7.33731">
        <ele>678</ele>
        <time>2017-02-19T11:07:42Z</time>
      </trkpt>
      <trkpt lat="48.24807" lon="7.33762">
        <ele>684</ele>
        <time>2017-02-19T11:08:05Z</time>
      </trkpt>
      <trkpt lat="48.24815" lon="7.3379">
        <ele>687</ele>
        <time>2017-02-19T11:08:47Z</time>
      </trkpt>
      <trkpt lat="48.24827" lon="7.33812">
        <ele>693</ele>
        <time>2017-02-19T11:09:15Z</time>
      </trkpt>
      <trkpt lat="48.2483" lon="7.33847">
        <ele>693</ele>
        <time>2017-02-19T11:09:41Z</time>
      </trkpt>
      <trkpt lat="48.2484" lon="7.33879">
        <ele>697</ele>
        <time>2017-02-19T11:10:25Z</time>
      </trkpt>
      <trkpt lat="48.24848" lon="7.33916">
        <ele>699</ele>
        <time>2017-02-19T11:10:55Z</time>
      </trkpt>
      <trkpt lat="48.24856" lon="7.33966">
        <ele>703</ele>
        <time>2017-02-19T11:11:42Z</time>
      </trkpt>
      <trkpt lat="48.24858" lon="7.33998">
        <ele>705</ele>
        <time>2017-02-19T11:12:01Z</time>
      </trkpt>
      <trkpt lat="48.24865" lon="7.34037">
        <ele>706</ele>
        <time>2017-02-19T11:12:19Z</time>
      </trkpt>
      <trkpt lat="48.24869" lon="7.34058">
        <ele>707</ele>
        <time>2017-02-19T11:12:42Z</time>
      </trkpt>
      <trkpt lat="48.24873" lon="7.34092">
        <ele>709</ele>
        <time>2017-02-19T11:13:10Z</time>
      </trkpt>
      <trkpt lat="48.24872" lon="7.34127">
        <ele>708</ele>
        <time>2017-02-19T11:13:26Z</time>
      </trkpt>
      <trkpt lat="48.2487" lon="7.3416">
        <ele>708</ele>
        <time>2017-02-19T11:13:47Z</time>
      </trkpt>
      <trkpt lat="48.24872" lon="7.34192">
        <ele>708</ele>
        <time>2017-02-19T11:14:09Z</time>
      </trkpt>
      <trkpt lat="48.24878" lon="7.34228">
        <ele>711</ele>
        <time>2017-02-19T11:14:31Z</time>
      </trkpt>
      <trkpt lat="48.24881" lon="7.34196">
        <ele>713</ele>
        <time>2017-02-19T11:19:03Z</time>
      </trkpt>
      <trkpt lat="48.24884" lon="7.34146">
        <ele>715</ele>
        <time>2017-02-19T11:19:27Z</time>
      </trkpt>
      <trkpt lat="48.24887" lon="7.34112">
        <ele>716</ele>
        <time>2017-02-19T11:19:49Z</time>
      </trkpt>
      <trkpt lat="48.24888" lon="7.34076">
        <ele>716</ele>
        <time>2017-02-19T11:20:15Z</time>
      </trkpt>
      <trkpt lat="48.24888" lon="7.34055">
        <ele>716</ele>
        <time>2017-02-19T11:20:25Z</time>
      </trkpt>
      <trkpt lat="48.24883" lon="7.34023">
        <ele>714</ele>
        <time>2017-02-19T11:20:51Z</time>
      </trkpt>
      <trkpt lat="48.24879" lon="7.33992">
        <ele>713</ele>
        <time>2017-02-19T11:21:52Z</time>
      </trkpt>
      <trkpt lat="48.24877" lon="7.33971">
        <ele>711</ele>
        <time>2017-02-19T11:22:23Z</time>
      </trkpt>
      <trkpt lat="48.24873" lon="7.33937">
        <ele>708</ele>
        <time>2017-02-19T11:22:45Z</time>
      </trkpt>
      <trkpt lat="48.24872" lon="7.33916">
        <ele>707</ele>
        <time>2017-02-19T11:23:00Z</time>
      </trkpt>
      <trkpt lat="48.24872" lon="7.33877">
        <ele>708</ele>
        <time>2017-02-19T11:27:45Z</time>
      </trkpt>
      <trkpt lat="48.24875" lon="7.33854">
        <ele>709</ele>
        <time>2017-02-19T11:27:53Z</time>
      </trkpt>
      <trkpt lat="48.24895" lon="7.33817">
        <ele>715</ele>
        <time>2017-02-19T11:28:25Z</time>
      </trkpt>
      <trkpt lat="48.24914" lon="7.33833">
        <ele>723</ele>
        <time>2017-02-19T12:39:23Z</time>
      </trkpt>
      <trkpt lat="48.24932" lon="7.3386">
        <ele>718</ele>
        <time>2017-02-19T12:39:53Z</time>
      </trkpt>
      <trkpt lat="48.24945" lon="7.33895">
        <ele>715</ele>
        <time>2017-02-19T12:41:17Z</time>
      </trkpt>
      <trkpt lat="48.24947" lon="7.33926">
        <ele>715</ele>
        <time>2017-02-19T12:41:39Z</time>
      </trkpt>
      <trkpt lat="48.24947" lon="7.33964">
        <ele>718</ele>
        <time>2017-02-19T12:42:05Z</time>
      </trkpt>
      <trkpt lat="48.24948" lon="7.33993">
        <ele>720</ele>
        <time>2017-02-19T12:42:19Z</time>
      </trkpt>
      <trkpt lat="48.24951" lon="7.34023">
        <ele>720</ele>
        <time>2017-02-19T12:42:34Z</time>
      </trkpt>
      <trkpt lat="48.24957" lon="7.34062">
        <ele>720</ele>
        <time>2017-02-19T12:43:05Z</time>
      </trkpt>
      <trkpt lat="48.24957" lon="7.34105">
        <ele>721</ele>
        <time>2017-02-19T12:43:33Z</time>
      </trkpt>
      <trkpt lat="48.24957" lon="7.34127">
        <ele>721</ele>
        <time>2017-02-19T12:43:41Z</time>
      </trkpt>
      <trkpt lat="48.2496" lon="7.34155">
        <ele>722</ele>
        <time>2017-02-19T12:43:55Z</time>
      </trkpt>
      <trkpt lat="48.24963" lon="7.34188">
        <ele>722</ele>
        <time>2017-02-19T12:44:09Z</time>
      </trkpt>
      <trkpt lat="48.24967" lon="7.34223">
        <ele>722</ele>
        <time>2017-02-19T12:44:25Z</time>
      </trkpt>
      <trkpt lat="48.24979" lon="7.34268">
        <ele>720</ele>
        <time>2017-02-19T12:45:01Z</time>
      </trkpt>
      <trkpt lat="48.24986" lon="7.34309">
        <ele>718</ele>
        <time>2017-02-19T12:45:19Z</time>
      </trkpt>
      <trkpt lat="48.24987" lon="7.34357">
        <ele>717</ele>
        <time>2017-02-19T12:45:53Z</time>
      </trkpt>
      <trkpt lat="48.24987" lon="7.34387">
        <ele>716</ele>
        <time>2017-02-19T12:46:13Z</time>
      </trkpt>
      <trkpt lat="48.24985" lon="7.34423">
        <ele>715</ele>
        <time>2017-02-19T12:46:29Z</time>
      </trkpt>
      <trkpt lat="48.24982" lon="7.34475">
        <ele>712</ele>
        <time>2017-02-19T12:47:09Z</time>
      </trkpt>
      <trkpt lat="48.2498" lon="7.34513">
        <ele>709</ele>
        <time>2017-02-19T12:47:25Z</time>
      </trkpt>
      <trkpt lat="48.24977" lon="7.34546">
        <ele>706</ele>
        <time>2017-02-19T12:47:43Z</time>
      </trkpt>
      <trkpt lat="48.24971" lon="7.34581">
        <ele>701</ele>
        <time>2017-02-19T12:49:19Z</time>
      </trkpt>
      <trkpt lat="48.24967" lon="7.34601">
        <ele>697</ele>
        <time>2017-02-19T12:50:22Z</time>
      </trkpt>
      <trkpt lat="48.24958" lon="7.3463">
        <ele>690</ele>
        <time>2017-02-19T12:50:39Z</time>
      </trkpt>
      <trkpt lat="48.2497" lon="7.34656">
        <ele>686</ele>
        <time>2017-02-19T12:56:13Z</time>
      </trkpt>
      <trkpt lat="48.24984" lon="7.34645">
        <ele>689</ele>
        <time>2017-02-19T12:56:27Z</time>
      </trkpt>
      <trkpt lat="48.24999" lon="7.34623">
        <ele>695</ele>
        <time>2017-02-19T12:57:13Z</time>
      </trkpt>
      <trkpt lat="48.25007" lon="7.34605">
        <ele>695</ele>
        <time>2017-02-19T12:57:19Z</time>
      </trkpt>
      <trkpt lat="48.25019" lon="7.34577">
        <ele>695</ele>
        <time>2017-02-19T12:59:57Z</time>
      </trkpt>
      <trkpt lat="48.25031" lon="7.3454">
        <ele>692</ele>
        <time>2017-02-19T13:00:21Z</time>
      </trkpt>
      <trkpt lat="48.2504" lon="7.34505">
        <ele>690</ele>
        <time>2017-02-19T13:00:41Z</time>
      </trkpt>
      <trkpt lat="48.25046" lon="7.3447">
        <ele>689</ele>
        <time>2017-02-19T13:01:07Z</time>
      </trkpt>
      <trkpt lat="48.25052" lon="7.34434">
        <ele>688</ele>
        <time>2017-02-19T13:01:25Z</time>
      </trkpt>
      <trkpt lat="48.25058" lon="7.34385">
        <ele>685</ele>
        <time>2017-02-19T13:01:47Z</time>
      </trkpt>
      <trkpt lat="48.2507" lon="7.34358">
        <ele>678</ele>
        <time>2017-02-19T13:02:23Z</time>
      </trkpt>
      <trkpt lat="48.25084" lon="7.34337">
        <ele>671</ele>
        <time>2017-02-19T13:07:02Z</time>
      </trkpt>
      <trkpt lat="48.25095" lon="7.34315">
        <ele>663</ele>
        <time>2017-02-19T13:07:20Z</time>
      </trkpt>
      <trkpt lat="48.251" lon="7.34287">
        <ele>657</ele>
        <time>2017-02-19T13:07:39Z</time>
      </trkpt>
      <trkpt lat="48.251" lon="7.34259">
        <ele>656</ele>
        <time>2017-02-19T13:07:58Z</time>
      </trkpt>
      <trkpt lat="48.251" lon="7.34231">
        <ele>655</ele>
        <time>2017-02-19T13:08:09Z</time>
      </trkpt>
      <trkpt lat="48.25105" lon="7.34206">
        <ele>651</ele>
        <time>2017-02-19T13:08:30Z</time>
      </trkpt>
      <trkpt lat="48.25111" lon="7.3418">
        <ele>646</ele>
        <time>2017-02-19T13:08:52Z</time>
      </trkpt>
      <trkpt lat="48.25113" lon="7.34152">
        <ele>644</ele>
        <time>2017-02-19T13:09:13Z</time>
      </trkpt>
      <trkpt lat="48.25121" lon="7.34126">
        <ele>639</ele>
        <time>2017-02-19T13:09:34Z</time>
      </trkpt>
      <trkpt lat="48.25128" lon="7.34095">
        <ele>634</ele>
        <time>2017-02-19T13:09:47Z</time>
      </trkpt>
      <trkpt lat="48.25137" lon="7.34114">
        <ele>628</ele>
        <time>2017-02-19T13:10:36Z</time>
      </trkpt>
      <trkpt lat="48.25136" lon="7.34134">
        <ele>629</ele>
        <time>2017-02-19T13:10:43Z</time>
      </trkpt>
      <trkpt lat="48.25135" lon="7.34162">
        <ele>629</ele>
        <time>2017-02-19T13:11:04Z</time>
      </trkpt>
      <trkpt lat="48.25142" lon="7.34189">
        <ele>625</ele>
        <time>2017-02-19T13:11:39Z</time>
      </trkpt>
      <trkpt lat="48.25149" lon="7.34221">
        <ele>622</ele>
        <time>2017-02-19T13:12:04Z</time>
      </trkpt>
      <trkpt lat="48.25155" lon="7.34263">
        <ele>621</ele>
        <time>2017-02-19T13:12:32Z</time>
      </trkpt>
      <trkpt lat="48.2516" lon="7.3429">
        <ele>620</ele>
        <time>2017-02-19T13:12:50Z</time>
      </trkpt>
      <trkpt lat="48.25165" lon="7.34313">
        <ele>619</ele>
        <time>2017-02-19T13:13:11Z</time>
      </trkpt>
      <trkpt lat="48.2517" lon="7.34349">
        <ele>619</ele>
        <time>2017-02-19T13:13:26Z</time>
      </trkpt>
      <trkpt lat="48.25173" lon="7.34382">
        <ele>617</ele>
        <time>2017-02-19T13:13:51Z</time>
      </trkpt>
      <trkpt lat="48.25178" lon="7.34418">
        <ele>616</ele>
        <time>2017-02-19T13:14:08Z</time>
      </trkpt>
      <trkpt lat="48.25182" lon="7.34441">
        <ele>613</ele>
        <time>2017-02-19T13:14:22Z</time>
      </trkpt>
      <trkpt lat="48.25185" lon="7.34465">
        <ele>611</ele>
        <time>2017-02-19T13:14:29Z</time>
      </trkpt>
      <trkpt lat="48.25189" lon="7.34501">
        <ele>608</ele>
        <time>2017-02-19T13:14:56Z</time>
      </trkpt>
      <trkpt lat="48.2519" lon="7.34536">
        <ele>607</ele>
        <time>2017-02-19T13:15:19Z</time>
      </trkpt>
      <trkpt lat="48.25191" lon="7.34573">
        <ele>606</ele>
        <time>2017-02-19T13:15:35Z</time>
      </trkpt>
      <trkpt lat="48.25191" lon="7.34609">
        <ele>602</ele>
        <time>2017-02-19T13:15:48Z</time>
      </trkpt>
      <trkpt lat="48.25191" lon="7.34645">
        <ele>596</ele>
        <time>2017-02-19T13:16:13Z</time>
      </trkpt>
      <trkpt lat="48.25189" lon="7.34681">
        <ele>591</ele>
        <time>2017-02-19T13:16:56Z</time>
      </trkpt>
      <trkpt lat="48.25182" lon="7.34716">
        <ele>587</ele>
        <time>2017-02-19T13:18:32Z</time>
      </trkpt>
      <trkpt lat="48.25172" lon="7.34751">
        <ele>585</ele>
        <time>2017-02-19T13:20:31Z</time>
      </trkpt>
      <trkpt lat="48.25165" lon="7.3477">
        <ele>583</ele>
        <time>2017-02-19T13:20:50Z</time>
      </trkpt>
      <trkpt lat="48.25159" lon="7.34789">
        <ele>580</ele>
        <time>2017-02-19T13:21:06Z</time>
      </trkpt>
      <trkpt lat="48.25147" lon="7.34823">
        <ele>574</ele>
        <time>2017-02-19T13:21:28Z</time>
      </trkpt>
      <trkpt lat="48.25135" lon="7.34856">
        <ele>569</ele>
        <time>2017-02-19T13:21:39Z</time>
      </trkpt>
      <trkpt lat="48.25122" lon="7.34876">
        <ele>568</ele>
        <time>2017-02-19T13:22:10Z</time>
      </trkpt>
      <trkpt lat="48.25106" lon="7.34898">
        <ele>567</ele>
        <time>2017-02-19T13:22:22Z</time>
      </trkpt>
      <trkpt lat="48.25084" lon="7.34918">
        <ele>568</ele>
        <time>2017-02-19T13:22:48Z</time>
      </trkpt>
      <trkpt lat="48.25064" lon="7.34941">
        <ele>564</ele>
        <time>2017-02-19T13:22:59Z</time>
      </trkpt>
      <trkpt lat="48.25044" lon="7.3496">
        <ele>560</ele>
        <time>2017-02-19T13:23:30Z</time>
      </trkpt>
      <trkpt lat="48.25023" lon="7.34981">
        <ele>555</ele>
        <time>2017-02-19T13:24:04Z</time>
      </trkpt>
      <trkpt lat="48.24993" lon="7.35006">
        <ele>549</ele>
        <time>2017-02-19T13:24:24Z</time>
      </trkpt>
      <trkpt lat="48.24975" lon="7.35021">
        <ele>545</ele>
        <time>2017-02-19T13:24:42Z</time>
      </trkpt>
      <trkpt lat="48.24955" lon="7.35036">
        <ele>541</ele>
        <time>2017-02-19T13:26:42Z</time>
      </trkpt>
      <trkpt lat="48.24937" lon="7.35049">
        <ele>537</ele>
        <time>2017-02-19T13:27:11Z</time>
      </trkpt>
      <trkpt lat="48.24919" lon="7.35065">
        <ele>531</ele>
        <time>2017-02-19T13:27:29Z</time>
      </trkpt>
      <trkpt lat="48.24905" lon="7.35073">
        <ele>528</ele>
        <time>2017-02-19T13:27:48Z</time>
      </trkpt>
      <trkpt lat="48.24875" lon="7.35087">
        <ele>525</ele>
        <time>2017-02-19T13:28:13Z</time>
      </trkpt>
      <trkpt lat="48.24851" lon="7.35122">
        <ele>519</ele>
        <time>2017-02-19T13:28:43Z</time>
      </trkpt>
      <trkpt lat="48.2484" lon="7.35149">
        <ele>515</ele>
        <time>2017-02-19T13:29:04Z</time>
      </trkpt>
      <trkpt lat="48.24836" lon="7.35181">
        <ele>511</ele>
        <time>2017-02-19T13:30:40Z</time>
      </trkpt>
      <trkpt lat="48.24838" lon="7.3522">
        <ele>507</ele>
        <time>2017-02-19T13:31:04Z</time>
      </trkpt>
      <trkpt lat="48.24844" lon="7.35258">
        <ele>503</ele>
        <time>2017-02-19T13:31:34Z</time>
      </trkpt>
      <trkpt lat="48.24845" lon="7.35278">
        <ele>501</ele>
        <time>2017-02-19T13:31:48Z</time>
      </trkpt>
      <trkpt lat="48.24848" lon="7.35324">
        <ele>496</ele>
        <time>2017-02-19T13:32:15Z</time>
      </trkpt>
      <trkpt lat="48.24861" lon="7.35349">
        <ele>492</ele>
        <time>2017-02-19T13:32:35Z</time>
      </trkpt>
      <trkpt lat="48.24862" lon="7.35373">
        <ele>490</ele>
        <time>2017-02-19T13:32:50Z</time>
      </trkpt>
      <trkpt lat="48.2486" lon="7.35395">
        <ele>488</ele>
        <time>2017-02-19T13:32:59Z</time>
      </trkpt>
      <trkpt lat="48.24848" lon="7.35413">
        <ele>487</ele>
        <time>2017-02-19T13:33:17Z</time>
      </trkpt>
      <trkpt lat="48.24834" lon="7.35432">
        <ele>487</ele>
        <time>2017-02-19T13:33:48Z</time>
      </trkpt>
      <trkpt lat="48.2482" lon="7.35453">
        <ele>484</ele>
        <time>2017-02-19T13:34:03Z</time>
      </trkpt>
      <trkpt lat="48.24808" lon="7.35476">
        <ele>481</ele>
        <time>2017-02-19T13:34:20Z</time>
      </trkpt>
      <trkpt lat="48.248" lon="7.35492">
        <ele>479</ele>
        <time>2017-02-19T13:34:39Z</time>
      </trkpt>
      <trkpt lat="48.2478" lon="7.35532">
        <ele>478</ele>
        <time>2017-02-19T13:36:05Z</time>
      </trkpt>
      <trkpt lat="48.2477" lon="7.35549">
        <ele>478</ele>
        <time>2017-02-19T13:36:23Z</time>
      </trkpt>
      <trkpt lat="48.24758" lon="7.35573">
        <ele>477</ele>
        <time>2017-02-19T13:36:41Z</time>
      </trkpt>
      <trkpt lat="48.24747" lon="7.35596">
        <ele>477</ele>
        <time>2017-02-19T13:36:59Z</time>
      </trkpt>
      <trkpt lat="48.24735" lon="7.35621">
        <ele>476</ele>
        <time>2017-02-19T13:37:19Z</time>
      </trkpt>
      <trkpt lat="48.24725" lon="7.35644">
        <ele>476</ele>
        <time>2017-02-19T13:37:37Z</time>
      </trkpt>
      <trkpt lat="48.24715" lon="7.35671">
        <ele>475</ele>
        <time>2017-02-19T13:37:53Z</time>
      </trkpt>
      <trkpt lat="48.24702" lon="7.357">
        <ele>474</ele>
        <time>2017-02-19T13:38:18Z</time>
      </trkpt>
      <trkpt lat="48.24691" lon="7.35726">
        <ele>474</ele>
        <time>2017-02-19T13:38:36Z</time>
      </trkpt>
      <trkpt lat="48.24679" lon="7.35751">
        <ele>474</ele>
        <time>2017-02-19T13:38:53Z</time>
      </trkpt>
      <trkpt lat="48.24664" lon="7.35771">
        <ele>474</ele>
        <time>2017-02-19T13:39:13Z</time>
      </trkpt>
      <trkpt lat="48.24645" lon="7.35791">
        <ele>474</ele>
        <time>2017-02-19T13:39:43Z</time>
      </trkpt>
      <trkpt lat="48.24614" lon="7.3581">
        <ele>471</ele>
        <time>2017-02-19T13:40:11Z</time>
      </trkpt>
      <trkpt lat="48.24592" lon="7.35817">
        <ele>467</ele>
        <time>2017-02-19T13:40:25Z</time>
      </trkpt>
      <trkpt lat="48.24577" lon="7.35822">
        <ele>465</ele>
        <time>2017-02-19T13:40:39Z</time>
      </trkpt>
      <trkpt lat="48.24553" lon="7.35822">
        <ele>460</ele>
        <time>2017-02-19T13:42:40Z</time>
      </trkpt>
      <trkpt lat="48.24539" lon="7.35826">
        <ele>458</ele>
        <time>2017-02-19T13:42:49Z</time>
      </trkpt>
      <trkpt lat="48.24519" lon="7.35836">
        <ele>456</ele>
        <time>2017-02-19T13:43:06Z</time>
      </trkpt>
      <trkpt lat="48.24502" lon="7.35843">
        <ele>453</ele>
        <time>2017-02-19T13:43:22Z</time>
      </trkpt>
      <trkpt lat="48.24481" lon="7.35853">
        <ele>451</ele>
        <time>2017-02-19T13:45:34Z</time>
      </trkpt>
      <trkpt lat="48.24458" lon="7.35886">
        <ele>453</ele>
        <time>2017-02-19T13:46:30Z</time>
      </trkpt>
      <trkpt lat="48.24448" lon="7.35909">
        <ele>456</ele>
        <time>2017-02-19T13:46:52Z</time>
      </trkpt>
      <trkpt lat="48.24437" lon="7.35931">
        <ele>457</ele>
        <time>2017-02-19T13:47:11Z</time>
      </trkpt>
      <trkpt lat="48.24424" lon="7.35953">
        <ele>456</ele>
        <time>2017-02-19T13:47:31Z</time>
      </trkpt>
      <trkpt lat="48.24409" lon="7.35974">
        <ele>456</ele>
        <time>2017-02-19T13:47:50Z</time>
      </trkpt>
      <trkpt lat="48.24395" lon="7.35996">
        <ele>456</ele>
        <time>2017-02-19T13:48:07Z</time>
      </trkpt>
      <trkpt lat="48.24384" lon="7.36015">
        <ele>454</ele>
        <time>2017-02-19T13:48:21Z</time>
      </trkpt>
      <trkpt lat="48.24371" lon="7.36042">
        <ele>454</ele>
        <time>2017-02-19T13:48:39Z</time>
      </trkpt>
      <trkpt lat="48.2436" lon="7.36055">
        <ele>455</ele>
        <time>2017-02-19T13:48:56Z</time>
      </trkpt>
      <trkpt lat="48.24343" lon="7.36081">
        <ele>457</ele>
        <time>2017-02-19T13:49:14Z</time>
      </trkpt>
      <trkpt lat="48.24333" lon="7.36099">
        <ele>459</ele>
        <time>2017-02-19T13:49:32Z</time>
      </trkpt>
      <trkpt lat="48.24318" lon="7.36127">
        <ele>456</ele>
        <time>2017-02-19T13:49:48Z</time>
      </trkpt>
      <trkpt lat="48.24301" lon="7.36153">
        <ele>454</ele>
        <time>2017-02-19T13:50:12Z</time>
      </trkpt>
      <trkpt lat="48.24291" lon="7.36188">
        <ele>452</ele>
        <time>2017-02-19T13:50:30Z</time>
      </trkpt>
      <trkpt lat="48.24278" lon="7.36216">
        <ele>452</ele>
        <time>2017-02-19T13:50:55Z</time>
      </trkpt>
      <trkpt lat="48.2427" lon="7.36233">
        <ele>452</ele>
        <time>2017-02-19T13:51:11Z</time>
      </trkpt>
      <trkpt lat="48.24263" lon="7.3625">
        <ele>453</ele>
        <time>2017-02-19T13:51:19Z</time>
      </trkpt>
      <trkpt lat="48.24257" lon="7.36278">
        <ele>453</ele>
        <time>2017-02-19T13:51:44Z</time>
      </trkpt>
      <trkpt lat="48.24253" lon="7.36298">
        <ele>453</ele>
        <time>2017-02-19T13:52:07Z</time>
      </trkpt>
      <trkpt lat="48.24238" lon="7.36322">
        <ele>452</ele>
        <time>2017-02-19T13:52:26Z</time>
      </trkpt>
      <trkpt lat="48.24226" lon="7.36344">
        <ele>449</ele>
        <time>2017-02-19T13:52:49Z</time>
      </trkpt>
      <trkpt lat="48.2421" lon="7.36365">
        <ele>446</ele>
        <time>2017-02-19T13:53:06Z</time>
      </trkpt>
      <trkpt lat="48.24184" lon="7.36398">
        <ele>443</ele>
        <time>2017-02-19T13:53:37Z</time>
      </trkpt>
      <trkpt lat="48.24175" lon="7.36432">
        <ele>443</ele>
        <time>2017-02-19T13:53:56Z</time>
      </trkpt>
      <trkpt lat="48.24167" lon="7.36465">
        <ele>443</ele>
        <time>2017-02-19T13:54:20Z</time>
      </trkpt>
      <trkpt lat="48.24157" lon="7.36498">
        <ele>442</ele>
        <time>2017-02-19T13:54:38Z</time>
      </trkpt>
      <trkpt lat="48.24152" lon="7.36517">
        <ele>440</ele>
        <time>2017-02-19T13:54:55Z</time>
      </trkpt>
      <trkpt lat="48.24143" lon="7.36549">
        <ele>437</ele>
        <time>2017-02-19T13:55:11Z</time>
      </trkpt>
      <trkpt lat="48.24135" lon="7.36583">
        <ele>435</ele>
        <time>2017-02-19T13:55:42Z</time>
      </trkpt>
      <trkpt lat="48.24135" lon="7.36613">
        <ele>433</ele>
        <time>2017-02-19T13:55:58Z</time>
      </trkpt>
      <trkpt lat="48.2413" lon="7.36652">
        <ele>430</ele>
        <time>2017-02-19T13:56:17Z</time>
      </trkpt>
      <trkpt lat="48.24125" lon="7.36685">
        <ele>428</ele>
        <time>2017-02-19T13:56:41Z</time>
      </trkpt>
      <trkpt lat="48.24115" lon="7.36709">
        <ele>426</ele>
        <time>2017-02-19T13:56:58Z</time>
      </trkpt>
      <trkpt lat="48.24098" lon="7.36723">
        <ele>426</ele>
        <time>2017-02-19T13:57:15Z</time>
      </trkpt>
      <trkpt lat="48.24085" lon="7.36731">
        <ele>426</ele>
        <time>2017-02-19T13:57:23Z</time>
      </trkpt>
      <trkpt lat="48.24079" lon="7.3675">
        <ele>423</ele>
        <time>2017-02-19T13:57:31Z</time>
      </trkpt>
      <trkpt lat="48.24079" lon="7.36786">
        <ele>421</ele>
        <time>2017-02-19T13:57:55Z</time>
      </trkpt>
      <trkpt lat="48.24081" lon="7.36835">
        <ele>418</ele>
        <time>2017-02-19T13:58:21Z</time>
      </trkpt>
      <trkpt lat="48.24082" lon="7.36866">
        <ele>415</ele>
        <time>2017-02-19T13:58:37Z</time>
      </trkpt>
      <trkpt lat="48.24084" lon="7.36895">
        <ele>412</ele>
        <time>2017-02-19T13:58:56Z</time>
      </trkpt>
      <trkpt lat="48.24085" lon="7.36923">
        <ele>409</ele>
        <time>2017-02-19T13:59:15Z</time>
      </trkpt>
      <trkpt lat="48.24084" lon="7.36959">
        <ele>405</ele>
        <time>2017-02-19T13:59:36Z</time>
      </trkpt>
      <trkpt lat="48.2408" lon="7.36997">
        <ele>400</ele>
        <time>2017-02-19T14:00:00Z</time>
      </trkpt>
      <trkpt lat="48.24073" lon="7.37029">
        <ele>394</ele>
        <time>2017-02-19T14:00:16Z</time>
      </trkpt>
      <trkpt lat="48.24062" lon="7.37076">
        <ele>387</ele>
        <time>2017-02-19T14:00:52Z</time>
      </trkpt>
      <trkpt lat="48.24041" lon="7.3708">
        <ele>383</ele>
        <time>2017-02-19T14:01:20Z</time>
      </trkpt>
      <trkpt lat="48.24029" lon="7.37088">
        <ele>380</ele>
        <time>2017-02-19T14:02:44Z</time>
      </trkpt>
      <trkpt lat="48.24041" lon="7.37095">
        <ele>382</ele>
        <time>2017-02-19T14:08:30Z</time>
      </trkpt>
      <trkpt lat="48.24059" lon="7.37103">
        <ele>384</ele>
        <time>2017-02-19T14:08:47Z</time>
      </trkpt>
      <trkpt lat="48.24054" lon="7.37143">
        <ele>379</ele>
        <time>2017-02-19T14:09:28Z</time>
      </trkpt>
      <trkpt lat="48.24052" lon="7.37179">
        <ele>374</ele>
        <time>2017-02-19T14:09:52Z</time>
      </trkpt>
      <trkpt lat="48.24049" lon="7.37214">
        <ele>370</ele>
        <time>2017-02-19T14:10:23Z</time>
      </trkpt>
      <trkpt lat="48.24049" lon="7.37238">
        <ele>368</ele>
        <time>2017-02-19T14:10:33Z</time>
      </trkpt>
      <trkpt lat="48.24044" lon="7.37274">
        <ele>363</ele>
        <time>2017-02-19T14:10:59Z</time>
      </trkpt>
      <trkpt lat="48.24039" lon="7.37312">
        <ele>358</ele>
        <time>2017-02-19T14:11:34Z</time>
      </trkpt>
      <trkpt lat="48.24037" lon="7.37332">
        <ele>356</ele>
        <time>2017-02-19T14:11:58Z</time>
      </trkpt>
      <trkpt lat="48.24038" lon="7.37361">
        <ele>351</ele>
        <time>2017-02-19T14:12:19Z</time>
      </trkpt>
      <trkpt lat="48.24039" lon="7.37382">
        <ele>348</ele>
        <time>2017-02-19T14:12:31Z</time>
      </trkpt>
      <trkpt lat="48.24035" lon="7.3742">
        <ele>343</ele>
        <time>2017-02-19T14:13:13Z</time>
      </trkpt>
      <trkpt lat="48.24029" lon="7.37456">
        <ele>338</ele>
        <time>2017-02-19T14:13:42Z</time>
      </trkpt>
      <trkpt lat="48.24029" lon="7.37485">
        <ele>333</ele>
        <time>2017-02-19T14:14:00Z</time>
      </trkpt>
      <trkpt lat="48.24014" lon="7.37478">
        <ele>335</ele>
        <time>2017-02-19T14:14:33Z</time>
      </trkpt>
      <trkpt lat="48.24004" lon="7.37451">
        <ele>339</ele>
        <time>2017-02-19T14:14:51Z</time>
      </trkpt>
      <trkpt lat="48.23997" lon="7.37423">
        <ele>341</ele>
        <time>2017-02-19T14:15:04Z</time>
      </trkpt>
      <trkpt lat="48.23987" lon="7.37406">
        <ele>340</ele>
        <time>2021-04-26T15:00:01Z</time>
      </trkpt>
      <trkpt lat="48.23964" lon="7.37371">
        <ele>336</ele>
        <time>2021-04-26T15:00:06Z</time>
      </trkpt>
      <trkpt lat="48.23939" lon="7.37335">
        <ele>333</ele>
        <time>2021-04-26T15:00:11Z</time>
      </trkpt>
      <trkpt lat="48.23916" lon="7.37299">
        <ele>328</ele>
        <time>2021-04-26T15:00:16Z</time>
      </trkpt>
      <trkpt lat="48.2389" lon="7.37262">
        <ele>321</ele>
        <time>2017-02-19T14:15:19Z</time>
      </trkpt>
      <trkpt lat="48.23909" lon="7.37355">
        <ele>319</ele>
        <time>2021-04-26T15:00:26Z</time>
      </trkpt>
      <trkpt lat="48.23928" lon="7.37448">
        <ele>313</ele>
        <time>2021-04-26T15:00:31Z</time>
      </trkpt>
      <trkpt lat="48.23949" lon="7.37534">
        <ele>310</ele>
        <time>2021-04-26T15:00:36Z</time>
      </trkpt>
      <trkpt lat="48.2397" lon="7.3762">
        <ele>303</ele>
        <time>2017-02-19T14:15:37Z</time>
      </trkpt>
      <trkpt lat="48.23932" lon="7.37587">
        <ele>297</ele>
        <time>2017-02-19T14:16:08Z</time>
      </trkpt>
      <trkpt lat="48.23963" lon="7.37632">
        <ele>298</ele>
        <time>2021-04-26T15:00:51Z</time>
      </trkpt>
      <trkpt lat="48.23975" lon="7.37664">
        <ele>296</ele>
        <time>2017-02-19T14:16:28Z</time>
      </trkpt>
      <trkpt lat="48.24" lon="7.37699">
        <ele>296</ele>
        <time>2017-02-19T14:16:47Z</time>
      </trkpt>
      <trkpt lat="48.24018" lon="7.37727">
        <ele>289</ele>
        <time>2021-04-26T15:01:06Z</time>
      </trkpt>
      <trkpt lat="48.24029" lon="7.37751">
        <ele>283</ele>
        <time>2017-02-19T14:17:27Z</time>
      </trkpt>
      <trkpt lat="48.24043" lon="7.37779">
        <ele>278</ele>
        <time>2017-02-19T14:18:01Z</time>
      </trkpt>
      <trkpt lat="48.24057" lon="7.37788">
        <ele>277</ele>
        <time>2017-02-19T14:18:21Z</time>
      </trkpt>
      <trkpt lat="48.24073" lon="7.37769">
        <ele>280</ele>
        <time>2017-02-19T14:19:20Z</time>
      </trkpt>
      <trkpt lat="48.24077" lon="7.37803">
        <ele>275</ele>
        <time>2021-04-26T15:01:31Z</time>
      </trkpt>
      <trkpt lat="48.24095" lon="7.37787">
        <ele>275</ele>
        <time>2017-02-19T14:21:19Z</time>
      </trkpt>
      <trkpt lat="48.24094" lon="7.37812">
        <ele>272</ele>
        <time>2017-02-19T16:16:25Z</time>
      </trkpt>
      <trkpt lat="48.24087" lon="7.37837">
        <ele>270</ele>
        <time>2017-02-19T16:16:34Z</time>
      </trkpt>
      <trkpt lat="48.24074" lon="7.37851">
        <ele>268</ele>
        <time>2017-02-19T16:16:45Z</time>
      </trkpt>
      <trkpt lat="48.24052" lon="7.37858">
        <ele>266</ele>
        <time>2017-02-19T16:17:01Z</time>
      </trkpt>
      <trkpt lat="48.24034" lon="7.37842">
        <ele>268</ele>
        <time>2017-02-19T16:17:27Z</time>
      </trkpt>
      <trkpt lat="48.24015" lon="7.3782">
        <ele>271</ele>
        <time>2017-02-19T16:17:54Z</time>
      </trkpt>
      <trkpt lat="48.23988" lon="7.37788">
        <ele>275</ele>
        <time>2017-02-19T16:18:21Z</time>
      </trkpt>
      <trkpt lat="48.2396" lon="7.37757">
        <ele>274</ele>
        <time>2017-02-19T16:18:49Z</time>
      </trkpt>
      <trkpt lat="48.23939" lon="7.37721">
        <ele>276</ele>
        <time>2017-02-19T16:19:25Z</time>
      </trkpt>
      <trkpt lat="48.23916" lon="7.37702">
        <ele>273</ele>
        <time>2017-02-19T16:19:53Z</time>
      </trkpt>
      <trkpt lat="48.23896" lon="7.37664">
        <ele>274</ele>
        <time>2017-02-19T16:20:21Z</time>
      </trkpt>
      <trkpt lat="48.23882" lon="7.37644">
        <ele>273</ele>
        <time>2017-02-19T16:20:39Z</time>
      </trkpt>
      <trkpt lat="48.23866" lon="7.37628">
        <ele>271</ele>
        <time>2017-02-19T16:20:56Z</time>
      </trkpt>
      <trkpt lat="48.2385" lon="7.3761">
        <ele>270</ele>
        <time>2017-02-19T16:21:22Z</time>
      </trkpt>
      <trkpt lat="48.23843" lon="7.37582">
        <ele>272</ele>
        <time>2017-02-19T16:21:41Z</time>
      </trkpt>
      <trkpt lat="48.23832" lon="7.37555">
        <ele>273</ele>
        <time>2017-02-19T16:21:59Z</time>
      </trkpt>
      <trkpt lat="48.23814" lon="7.37527">
        <ele>274</ele>
        <time>2017-02-19T16:22:27Z</time>
      </trkpt>
      <trkpt lat="48.23797" lon="7.37499">
        <ele>274</ele>
        <time>2017-02-19T16:22:47Z</time>
      </trkpt>
      <trkpt lat="48.23776" lon="7.37479">
        <ele>270</ele>
        <time>2017-02-19T16:23:17Z</time>
      </trkpt>
      <trkpt lat="48.23764" lon="7.37464">
        <ele>268</ele>
        <time>2017-02-19T16:23:29Z</time>
      </trkpt>
      <trkpt lat="48.23751" lon="7.37441">
        <ele>266</ele>
        <time>2017-02-19T16:23:49Z</time>
      </trkpt>
      <trkpt lat="48.23742" lon="7.37415">
        <ele>266</ele>
        <time>2017-02-19T16:24:17Z</time>
      </trkpt>
      <trkpt lat="48.23734" lon="7.37386">
        <ele>268</ele>
        <time>2017-02-19T16:24:35Z</time>
      </trkpt>
      <trkpt lat="48.23727" lon="7.37356">
        <ele>270</ele>
        <time>2017-02-19T16:24:51Z</time>
      </trkpt>
      <trkpt lat="48.23719" lon="7.37327">
        <ele>271</ele>
        <time>2017-02-19T16:25:09Z</time>
      </trkpt>
      <trkpt lat="48.2371" lon="7.373">
        <ele>271</ele>
        <time>2017-02-19T16:25:33Z</time>
      </trkpt>
      <trkpt lat="48.23699" lon="7.3727">
        <ele>271</ele>
        <time>2017-02-19T16:25:52Z</time>
      </trkpt>
      <trkpt lat="48.23689" lon="7.37238">
        <ele>270</ele>
        <time>2017-02-19T16:26:13Z</time>
      </trkpt>
      <trkpt lat="48.23682" lon="7.37189">
        <ele>271</ele>
        <time>2017-02-19T16:26:36Z</time>
      </trkpt>
      <trkpt lat="48.23675" lon="7.3716">
        <ele>271</ele>
        <time>2017-02-19T16:27:11Z</time>
      </trkpt>
      <trkpt lat="48.23664" lon="7.37133">
        <ele>270</ele>
        <time>2017-02-19T16:27:33Z</time>
      </trkpt>
      <trkpt lat="48.23655" lon="7.37104">
        <ele>271</ele>
        <time>2017-02-19T16:27:50Z</time>
      </trkpt>
      <trkpt lat="48.23645" lon="7.37068">
        <ele>271</ele>
        <time>2017-02-19T16:28:19Z</time>
      </trkpt>
      <trkpt lat="48.23634" lon="7.37027">
        <ele>271</ele>
        <time>2017-02-19T16:28:57Z</time>
      </trkpt>
      <trkpt lat="48.23627" lon="7.37007">
        <ele>271</ele>
        <time>2017-02-19T16:29:06Z</time>
      </trkpt>
      <trkpt lat="48.23621" lon="7.36985">
        <ele>271</ele>
        <time>2017-02-19T16:29:15Z</time>
      </trkpt>
      <trkpt lat="48.23615" lon="7.36957">
        <ele>271</ele>
        <time>2017-02-19T16:29:33Z</time>
      </trkpt>
      <trkpt lat="48.23608" lon="7.36927">
        <ele>271</ele>
        <time>2017-02-19T16:29:51Z</time>
      </trkpt>
      <trkpt lat="48.23601" lon="7.36905">
        <ele>270</ele>
        <time>2017-02-19T16:30:05Z</time>
      </trkpt>
      <trkpt lat="48.2359" lon="7.36866">
        <ele>269</ele>
        <time>2017-02-19T16:30:33Z</time>
      </trkpt>
      <trkpt lat="48.23581" lon="7.36849">
        <ele>268</ele>
        <time>2017-02-19T16:30:41Z</time>
      </trkpt>
      <trkpt lat="48.23573" lon="7.36831">
        <ele>268</ele>
        <time>2017-02-19T16:30:49Z</time>
      </trkpt>
      <trkpt lat="48.23563" lon="7.36813">
        <ele>267</ele>
        <time>2017-02-19T16:31:07Z</time>
      </trkpt>
      <trkpt lat="48.23552" lon="7.368">
        <ele>266</ele>
        <time>2017-02-19T16:31:18Z</time>
      </trkpt>
      <trkpt lat="48.23535" lon="7.3678">
        <ele>265</ele>
        <time>2017-02-19T16:31:34Z</time>
      </trkpt>
      <trkpt lat="48.23517" lon="7.36757">
        <ele>263</ele>
        <time>2017-02-19T16:32:01Z</time>
      </trkpt>
      <trkpt lat="48.2351" lon="7.3672">
        <ele>263</ele>
        <time>2017-02-19T16:32:19Z</time>
      </trkpt>
      <trkpt lat="48.23494" lon="7.36693">
        <ele>262</ele>
        <time>2017-02-19T16:32:39Z</time>
      </trkpt>
      <trkpt lat="48.23474" lon="7.36674">
        <ele>261</ele>
        <time>2017-02-19T16:33:11Z</time>
      </trkpt>
      <trkpt lat="48.23461" lon="7.36664">
        <ele>260</ele>
        <time>2017-02-19T16:33:19Z</time>
      </trkpt>
      <trkpt lat="48.2344" lon="7.36644">
        <ele>259</ele>
        <time>2017-02-19T16:33:42Z</time>
      </trkpt>
      <trkpt lat="48.23417" lon="7.36624">
        <ele>258</ele>
        <time>2017-02-19T16:34:01Z</time>
      </trkpt>
      <trkpt lat="48.23391" lon="7.3661">
        <ele>257</ele>
        <time>2017-02-19T16:34:27Z</time>
      </trkpt>
      <trkpt lat="48.23375" lon="7.36607">
        <ele>257</ele>
        <time>2017-02-19T16:34:43Z</time>
      </trkpt>
      <trkpt lat="48.23359" lon="7.36606">
        <ele>257</ele>
        <time>2017-02-19T16:34:51Z</time>
      </trkpt>
      <trkpt lat="48.23338" lon="7.36612">
        <ele>257</ele>
        <time>2017-02-19T16:35:11Z</time>
      </trkpt>
      <trkpt lat="48.23314" lon="7.36618">
        <ele>255</ele>
        <time>2017-02-19T16:35:45Z</time>
      </trkpt>
      <trkpt lat="48.2329" lon="7.36617">
        <ele>254</ele>
        <time>2017-02-19T16:36:03Z</time>
      </trkpt>
      <trkpt lat="48.2328" lon="7.36612">
        <ele>254</ele>
        <time>2017-02-19T16:36:17Z</time>
      </trkpt>
    </trkseg>
  </trk>
</gpx>